Time;durP1;ratioP1;P1;durP2;ratioP2;P2;SDS_P1;SDS_P2;PMS_P1;PMS_P2;Temp;Humidity;BMP_temperature;BMP_pressure;BME280_temperature;BME280_humidity;BME280_pressure;Samples;Min_cycle;Max_cycle;Signal;HPM_P1;HPM_P2
2022/07/02 00:00:53;;;;;;;4.82;1.48;;;13.70;99.90;;;;;;5045145;28;20040;-71
2022/07/02 00:03:25;;;;;;;9.65;1.98;;;13.60;99.90;;;;;;5040205;28;20083;-71
2022/07/02 00:06:03;;;;;;;8.88;1.77;;;13.60;99.90;;;;;;5045823;28;20035;-71
2022/07/02 00:08:30;;;;;;;8.00;1.67;;;13.60;99.90;;;;;;5045179;28;20061;-71
2022/07/02 00:10:57;;;;;;;7.15;1.52;;;13.70;99.90;;;;;;5034587;28;20034;-71
2022/07/02 00:13:24;;;;;;;5.47;1.27;;;13.70;99.90;;;;;;5036590;28;20037;-72
2022/07/02 00:15:50;;;;;;;9.20;1.40;;;13.70;99.90;;;;;;5050686;28;20067;-70
2022/07/02 00:18:17;;;;;;;8.68;1.67;;;13.80;99.90;;;;;;5057988;28;20112;-70
2022/07/02 00:20:43;;;;;;;6.82;1.30;;;13.90;99.90;;;;;;5057758;28;20033;-71
2022/07/02 00:23:09;;;;;;;6.20;1.40;;;13.90;99.90;;;;;;5061630;28;20063;-71
2022/07/02 00:25:47;;;;;;;5.40;1.17;;;13.90;99.90;;;;;;5044228;28;20467;-70
2022/07/02 00:28:16;;;;;;;7.68;1.33;;;14.00;99.90;;;;;;5057799;28;20040;-70
2022/07/02 00:30:46;;;;;;;3.88;1.02;;;14.10;99.90;;;;;;5051079;28;20029;-71
2022/07/02 00:33:16;;;;;;;6.30;1.35;;;14.10;99.90;;;;;;5061164;28;20032;-71
2022/07/02 00:35:42;;;;;;;7.80;1.30;;;14.10;99.90;;;;;;5047111;28;20033;-70
2022/07/02 00:38:08;;;;;;;8.82;1.88;;;14.10;99.90;;;;;;5047701;28;20057;-71
2022/07/02 00:40:34;;;;;;;9.77;1.48;;;14.10;99.90;;;;;;5048435;28;20064;-70
2022/07/02 00:43:00;;;;;;;9.95;1.40;;;14.00;99.90;;;;;;5048338;28;20446;-70
2022/07/02 00:45:26;;;;;;;8.32;1.70;;;14.00;99.90;;;;;;5056127;28;20109;-70
2022/07/02 00:47:54;;;;;;;6.88;1.25;;;13.90;99.90;;;;;;5052359;28;20190;-70
2022/07/02 00:50:23;;;;;;;7.45;1.30;;;13.80;99.90;;;;;;5048977;28;20029;-72
2022/07/02 00:52:50;;;;;;;8.00;1.50;;;13.80;99.90;;;;;;5056836;28;20040;-71
2022/07/02 00:55:15;;;;;;;5.28;1.40;;;13.80;99.90;;;;;;5047812;28;20037;-71
2022/07/02 00:57:45;;;;;;;6.82;1.40;;;13.90;99.90;;;;;;5045023;28;20403;-70
2022/07/02 01:00:14;;;;;;;6.05;1.10;;;13.80;99.90;;;;;;5048517;28;20029;-70
2022/07/02 01:02:46;;;;;;;7.97;1.50;;;13.80;99.90;;;;;;5048178;28;20048;-71
2022/07/02 01:05:16;;;;;;;7.22;1.30;;;13.80;99.90;;;;;;5048071;28;20025;-70
2022/07/02 01:10:16;;;;;;;6.47;1.40;;;13.70;99.90;;;;;;5050989;28;20033;-71
2022/07/02 01:10:52;;;;;;;7.60;1.63;;;13.60;99.90;;;;;;5066815;28;20041;-72
2022/07/02 01:13:18;;;;;;;8.55;1.50;;;13.60;99.90;;;;;;5051125;28;20033;-71
2022/07/02 01:15:44;;;;;;;6.40;1.23;;;13.60;99.90;;;;;;5059015;28;20033;-71
2022/07/02 01:18:13;;;;;;;5.68;1.27;;;13.60;99.90;;;;;;5048362;28;20118;-71
2022/07/02 01:20:38;;;;;;;5.43;1.35;;;13.50;99.90;;;;;;5059361;28;20036;-71
2022/07/02 01:23:04;;;;;;;6.03;1.33;;;13.60;99.90;;;;;;5054073;28;20067;-71
2022/07/02 01:25:30;;;;;;;6.15;1.73;;;13.60;99.90;;;;;;5051211;28;20032;-71
2022/07/02 01:27:55;;;;;;;7.05;1.35;;;13.50;99.90;;;;;;5052961;28;20063;-71
2022/07/02 01:30:21;;;;;;;6.53;1.92;;;13.50;99.90;;;;;;5054925;28;20478;-71
2022/07/02 01:32:47;;;;;;;6.30;1.80;;;13.40;99.90;;;;;;5051310;28;20074;-71
2022/07/02 01:35:12;;;;;;;6.80;1.55;;;13.30;99.90;;;;;;5049832;28;20021;-71
2022/07/02 01:37:39;;;;;;;6.25;1.40;;;13.20;99.90;;;;;;5062637;28;20384;-71
2022/07/02 01:40:06;;;;;;;6.28;1.33;;;13.10;99.90;;;;;;5049200;28;20032;-70
2022/07/02 01:42:31;;;;;;;4.97;1.65;;;13.00;99.90;;;;;;5060275;28;20154;-71
2022/07/02 01:44:57;;;;;;;8.02;1.60;;;12.90;99.90;;;;;;5055481;28;20037;-71
2022/07/02 01:47:23;;;;;;;4.85;1.42;;;12.90;99.90;;;;;;5046803;28;20040;-70
2022/07/02 01:49:48;;;;;;;6.97;1.40;;;12.80;99.90;;;;;;5048740;28;20106;-70
2022/07/02 01:52:15;;;;;;;6.20;1.50;;;12.70;99.90;;;;;;5056406;28;20056;-70
2022/07/02 01:54:41;;;;;;;6.20;1.50;;;12.70;99.90;;;;;;5053589;28;20033;-71
2022/07/02 01:57:07;;;;;;;8.90;1.70;;;12.60;99.90;;;;;;5047922;28;20054;-70
2022/07/02 01:59:33;;;;;;;5.90;1.80;;;12.50;99.90;;;;;;5047273;28;20020;-71
2022/07/02 02:01:59;;;;;;;8.15;1.77;;;12.50;99.90;;;;;;5038028;28;20025;-70
2022/07/02 02:04:25;;;;;;;7.95;2.08;;;12.40;99.90;;;;;;5049390;28;20079;-71
2022/07/02 02:06:51;;;;;;;8.05;1.77;;;12.40;99.90;;;;;;5057037;28;20104;-70
2022/07/02 02:09:16;;;;;;;5.43;1.70;;;12.50;99.90;;;;;;5045113;28;20056;-71
2022/07/02 02:11:43;;;;;;;4.43;1.42;;;12.50;99.90;;;;;;5046144;28;20032;-70
2022/07/02 02:14:09;;;;;;;4.97;1.60;;;12.50;99.90;;;;;;5043986;28;20029;-71
2022/07/02 02:16:34;;;;;;;6.72;1.60;;;12.50;99.90;;;;;;5043699;28;20871;-71
2022/07/02 02:19:00;;;;;;;8.27;2.00;;;12.50;99.90;;;;;;5042052;28;20507;-71
2022/07/02 02:21:27;;;;;;;7.20;1.70;;;12.50;99.90;;;;;;5038658;28;20029;-71
2022/07/02 02:23:54;;;;;;;5.03;1.85;;;12.60;99.90;;;;;;5036342;28;20458;-71
2022/07/02 02:26:20;;;;;;;6.60;1.42;;;12.50;99.90;;;;;;5043712;28;20037;-70
2022/07/02 02:28:46;;;;;;;6.85;1.83;;;12.40;99.90;;;;;;5037866;28;20033;-70
2022/07/02 02:31:12;;;;;;;10.05;1.70;;;12.40;99.90;;;;;;5034117;28;20048;-70
2022/07/02 02:33:37;;;;;;;6.40;1.85;;;12.30;99.90;;;;;;5040373;28;20080;-70
2022/07/02 02:36:03;;;;;;;7.18;1.80;;;12.30;99.90;;;;;;5042424;28;20064;-70
2022/07/02 02:38:29;;;;;;;5.93;1.80;;;12.30;99.90;;;;;;5041110;28;20057;-71
2022/07/02 02:40:55;;;;;;;8.32;1.73;;;12.20;99.90;;;;;;5041387;28;20039;-71
2022/07/02 02:43:21;;;;;;;9.80;2.25;;;12.30;99.90;;;;;;5039389;28;20140;-71
2022/07/02 02:45:48;;;;;;;8.10;1.70;;;12.30;99.90;;;;;;5044581;28;20039;-70
2022/07/02 02:48:17;;;;;;;8.90;1.50;;;12.30;99.90;;;;;;5027488;28;20772;-71
2022/07/02 02:50:43;;;;;;;5.05;1.27;;;12.50;99.90;;;;;;5047977;28;20037;-72
2022/07/02 02:53:08;;;;;;;6.95;1.55;;;12.60;99.90;;;;;;5038813;28;20033;-71
2022/07/02 02:55:34;;;;;;;8.02;1.40;;;12.70;99.90;;;;;;5045453;28;20033;-71
2022/07/02 02:58:00;;;;;;;4.97;1.33;;;12.80;99.90;;;;;;5048602;28;20041;-70
2022/07/02 03:00:25;;;;;;;7.10;1.30;;;12.90;99.90;;;;;;5042827;28;20033;-70
2022/07/02 03:02:51;;;;;;;7.53;1.52;;;13.00;99.90;;;;;;5049501;28;20032;-71
2022/07/02 03:05:16;;;;;;;8.63;1.27;;;13.10;99.90;;;;;;5035385;28;20026;-70
2022/07/02 03:07:42;;;;;;;7.95;1.65;;;13.20;99.90;;;;;;5036423;28;20115;-70
2022/07/02 03:10:08;;;;;;;4.72;1.08;;;13.20;99.90;;;;;;5038329;28;20040;-71
2022/07/02 03:12:34;;;;;;;9.32;1.67;;;13.30;99.90;;;;;;5036280;28;20060;-71
2022/07/02 03:14:59;;;;;;;4.40;1.20;;;13.40;99.90;;;;;;5052185;28;20110;-70
2022/07/02 03:17:25;;;;;;;6.32;1.38;;;13.40;99.90;;;;;;5040872;28;20052;-70
2022/07/02 03:19:51;;;;;;;5.28;1.00;;;13.50;99.90;;;;;;5048356;28;20029;-70
2022/07/02 03:22:17;;;;;;;6.97;1.10;;;13.60;99.90;;;;;;5050092;28;20413;-70
2022/07/02 03:24:42;;;;;;;7.15;1.50;;;13.60;99.90;;;;;;5040403;28;20379;-70
2022/07/02 03:27:08;;;;;;;4.50;0.80;;;13.70;99.90;;;;;;5053904;28;20033;-70
2022/07/02 03:29:34;;;;;;;3.85;0.93;;;13.70;99.90;;;;;;5049699;28;20033;-70
2022/07/02 03:31:59;;;;;;;6.38;1.10;;;13.80;99.90;;;;;;5053274;28;20118;-70
2022/07/02 03:34:25;;;;;;;5.03;0.90;;;13.80;99.90;;;;;;5040348;28;20061;-70
2022/07/02 03:36:51;;;;;;;5.32;1.13;;;13.80;99.90;;;;;;5045203;28;20045;-70
2022/07/02 03:39:16;;;;;;;6.57;1.50;;;13.90;99.90;;;;;;5042954;28;20045;-70
2022/07/02 03:41:42;;;;;;;5.93;0.95;;;13.90;99.90;;;;;;5048231;28;20047;-71
2022/07/02 03:44:08;;;;;;;7.50;1.20;;;13.90;99.90;;;;;;5039967;28;20021;-70
2022/07/02 03:46:33;;;;;;;4.93;0.98;;;13.90;99.90;;;;;;5038563;28;20491;-71
2022/07/02 03:48:59;;;;;;;4.90;0.90;;;13.90;99.90;;;;;;5043926;28;20476;-70
2022/07/02 03:51:25;;;;;;;5.88;1.05;;;13.90;99.90;;;;;;5040235;28;20400;-71
2022/07/02 03:53:50;;;;;;;6.72;1.33;;;13.90;99.90;;;;;;5041508;28;20034;-71
2022/07/02 03:56:16;;;;;;;6.18;1.00;;;13.90;99.90;;;;;;5035241;28;20025;-71
2022/07/02 03:58:42;;;;;;;7.10;1.20;;;13.80;99.90;;;;;;5034642;28;20067;-71
2022/07/02 04:01:07;;;;;;;5.95;1.38;;;13.80;99.90;;;;;;5046018;28;20757;-70
2022/07/02 04:03:34;;;;;;;7.47;1.38;;;13.80;99.90;;;;;;5042985;28;20082;-71
2022/07/02 04:06:00;;;;;;;6.60;1.02;;;13.70;99.90;;;;;;5039229;28;20083;-71
2022/07/02 04:08:26;;;;;;;6.13;1.15;;;13.70;99.90;;;;;;5047033;28;20101;-71
2022/07/02 04:10:51;;;;;;;5.68;1.42;;;13.70;99.90;;;;;;5044630;28;20056;-71
2022/07/02 04:13:17;;;;;;;5.38;1.17;;;13.70;99.90;;;;;;5049635;28;20048;-71
2022/07/02 04:15:43;;;;;;;4.60;1.15;;;13.80;99.90;;;;;;5046506;28;20047;-71
2022/07/02 04:18:08;;;;;;;4.88;1.10;;;13.70;99.90;;;;;;5048336;28;20058;-71
2022/07/02 04:20:34;;;;;;;4.78;0.98;;;13.80;99.90;;;;;;5048627;28;20029;-71
2022/07/02 04:23:00;;;;;;;7.55;1.10;;;13.80;99.90;;;;;;5036597;28;20114;-71
2022/07/02 04:25:26;;;;;;;6.75;1.33;;;13.80;99.90;;;;;;5035150;28;20033;-71
2022/07/02 04:27:51;;;;;;;7.80;1.20;;;13.80;99.90;;;;;;5038383;28;20117;-71
2022/07/02 04:30:17;;;;;;;6.13;1.30;;;13.80;99.90;;;;;;5036413;28;20033;-71
2022/07/02 04:32:43;;;;;;;6.53;1.35;;;13.90;99.90;;;;;;5048031;28;20040;-71
2022/07/02 04:35:08;;;;;;;6.70;1.50;;;13.90;99.90;;;;;;5038593;28;20037;-72
2022/07/02 04:37:34;;;;;;;6.32;1.20;;;13.90;99.90;;;;;;5037321;28;20081;-71
2022/07/02 04:40:00;;;;;;;13.13;1.75;;;14.00;99.90;;;;;;5041465;28;20033;-71
2022/07/02 04:42:26;;;;;;;7.45;1.10;;;14.00;99.90;;;;;;5044250;28;20468;-71
2022/07/02 04:44:51;;;;;;;4.60;1.02;;;14.00;99.90;;;;;;5034942;28;20709;-71
2022/07/02 04:47:17;;;;;;;6.72;1.20;;;14.00;99.90;;;;;;5040958;28;20139;-71
2022/07/02 04:49:43;;;;;;;5.20;1.13;;;14.00;99.90;;;;;;5036724;28;20039;-71
2022/07/02 04:52:08;;;;;;;3.60;0.90;;;14.10;99.90;;;;;;5031715;28;20037;-71
2022/07/02 04:54:34;;;;;;;5.10;1.27;;;14.10;99.90;;;;;;5058053;28;20048;-71
2022/07/02 04:57:00;;;;;;;3.53;0.73;;;14.10;99.90;;;;;;5055203;28;20474;-71
2022/07/02 04:59:26;;;;;;;5.88;1.00;;;14.10;99.90;;;;;;5046724;28;20024;-71
2022/07/02 05:01:51;;;;;;;6.03;1.00;;;14.20;99.90;;;;;;5032573;28;20033;-70
2022/07/02 05:04:17;;;;;;;4.40;1.10;;;14.20;99.90;;;;;;5036425;28;20029;-70
2022/07/02 05:06:43;;;;;;;6.35;1.25;;;14.30;99.90;;;;;;5040114;28;20091;-69
2022/07/02 05:09:09;;;;;;;6.05;1.00;;;14.30;99.90;;;;;;5050021;28;20040;-70
2022/07/02 05:11:35;;;;;;;7.75;1.50;;;14.40;99.90;;;;;;5042944;28;20032;-69
2022/07/02 05:14:00;;;;;;;6.07;1.08;;;14.50;99.90;;;;;;5043283;28;20036;-69
2022/07/02 05:16:26;;;;;;;5.07;0.93;;;14.50;99.90;;;;;;5049502;28;20043;-70
2022/07/02 05:18:52;;;;;;;9.05;0.88;;;14.60;99.90;;;;;;5046889;28;20044;-70
2022/07/02 05:21:17;;;;;;;4.38;0.73;;;14.60;99.90;;;;;;5041676;28;20034;-70
2022/07/02 05:23:43;;;;;;;4.00;0.82;;;14.60;99.90;;;;;;5048318;28;20113;-70
2022/07/02 05:26:08;;;;;;;3.17;0.70;;;14.60;99.90;;;;;;5037555;28;20033;-70
2022/07/02 05:28:34;;;;;;;3.63;0.90;;;14.70;99.90;;;;;;5034758;28;20037;-70
2022/07/02 05:31:00;;;;;;;5.72;0.70;;;14.80;99.90;;;;;;5044714;28;20104;-70
2022/07/02 05:33:25;;;;;;;4.20;0.98;;;14.80;99.90;;;;;;5037164;28;20064;-70
2022/07/02 05:35:51;;;;;;;4.78;0.90;;;14.90;99.90;;;;;;5033128;28;20025;-70
2022/07/02 05:38:17;;;;;;;4.15;0.90;;;15.00;99.90;;;;;;5031232;28;20594;-70
2022/07/02 05:40:43;;;;;;;6.25;1.00;;;15.00;99.90;;;;;;5049252;28;20033;-70
2022/07/02 05:43:09;;;;;;;5.05;0.70;;;15.00;99.90;;;;;;5037162;28;20752;-70
2022/07/02 05:45:35;;;;;;;6.82;0.95;;;15.10;99.90;;;;;;5036380;28;20040;-71
2022/07/02 05:48:01;;;;;;;3.05;1.10;;;15.10;99.90;;;;;;5026994;28;20048;-71
2022/07/02 05:50:26;;;;;;;8.00;1.23;;;15.10;99.90;;;;;;5041840;28;20037;-70
2022/07/02 05:52:52;;;;;;;5.97;1.25;;;15.20;99.90;;;;;;5047435;28;20117;-71
2022/07/02 05:55:18;;;;;;;5.72;1.08;;;15.30;99.90;;;;;;5047633;28;20088;-70
2022/07/02 05:57:43;;;;;;;4.47;0.90;;;15.40;99.90;;;;;;5052559;28;20782;-68
2022/07/02 06:00:11;;;;;;;4.88;0.82;;;15.50;99.90;;;;;;5035505;28;20253;-69
2022/07/02 06:02:37;;;;;;;4.80;1.08;;;15.60;99.90;;;;;;5033299;28;20029;-70
2022/07/02 06:07:49;;;;;;;4.50;0.90;;;15.70;99.90;;;;;;5037849;28;20042;-71
2022/07/02 06:10:18;;;;;;;4.32;1.05;;;15.70;99.90;;;;;;5041687;28;20044;-70
2022/07/02 06:12:48;;;;;;;5.97;1.20;;;15.80;99.90;;;;;;5031829;28;20032;-68
2022/07/02 06:15:15;;;;;;;5.53;0.80;;;15.80;99.90;;;;;;5042939;28;20048;-68
2022/07/02 06:17:41;;;;;;;3.00;0.73;;;15.90;99.90;;;;;;5036137;28;20569;-70
2022/07/02 06:20:07;;;;;;;4.65;0.77;;;15.90;99.90;;;;;;5040271;28;20025;-69
2022/07/02 06:22:33;;;;;;;3.60;0.90;;;15.90;99.90;;;;;;5034133;28;20070;-69
2022/07/02 06:24:59;;;;;;;2.90;0.60;;;16.00;99.90;;;;;;5039721;28;20060;-69
2022/07/02 06:27:24;;;;;;;3.17;0.68;;;16.10;99.90;;;;;;5036986;28;20086;-72
2022/07/02 06:29:50;;;;;;;7.47;1.25;;;16.10;99.90;;;;;;5043077;28;20079;-69
2022/07/02 06:32:16;;;;;;;2.45;0.50;;;16.10;99.90;;;;;;5037106;28;20049;-70
2022/07/02 06:34:43;;;;;;;2.78;0.75;;;16.20;99.90;;;;;;5037085;28;20091;-68
2022/07/02 06:37:09;;;;;;;5.30;1.00;;;16.20;99.90;;;;;;5030258;28;20075;-70
2022/07/02 06:39:35;;;;;;;7.07;1.00;;;16.20;99.90;;;;;;5040322;28;20041;-70
2022/07/02 06:42:19;;;;;;;3.47;0.77;;;16.30;99.90;;;;;;5041047;28;20082;-69
2022/07/02 06:44:46;;;;;;;5.00;0.70;;;16.40;99.90;;;;;;5037479;28;20033;-70
2022/07/02 06:47:13;;;;;;;3.55;0.80;;;16.40;99.90;;;;;;5038617;28;20900;-70
2022/07/02 06:49:39;;;;;;;3.55;0.90;;;16.40;99.90;;;;;;5043935;28;20037;-69
2022/07/02 06:52:05;;;;;;;3.10;0.60;;;16.50;99.90;;;;;;5033616;28;20044;-70
2022/07/02 06:54:31;;;;;;;4.40;0.88;;;16.50;99.90;;;;;;5041074;28;20082;-71
2022/07/02 06:56:57;;;;;;;4.63;0.88;;;16.60;99.90;;;;;;5032511;28;20049;-70
2022/07/02 06:59:23;;;;;;;3.03;0.60;;;16.60;99.90;;;;;;5046089;28;20032;-71
2022/07/02 07:01:48;;;;;;;3.00;0.57;;;16.60;99.90;;;;;;5047087;28;20033;-68
2022/07/02 07:04:14;;;;;;;2.88;0.45;;;16.70;99.90;;;;;;5043552;28;20117;-70
2022/07/02 07:06:44;;;;;;;5.72;1.08;;;16.80;99.90;;;;;;5046404;28;20152;-71
2022/07/02 07:09:09;;;;;;;4.13;0.80;;;16.90;99.90;;;;;;5035930;28;20079;-69
2022/07/02 07:11:35;;;;;;;3.10;0.73;;;17.00;99.90;;;;;;5041690;28;20072;-71
2022/07/02 07:14:01;;;;;;;2.15;0.70;;;17.10;99.90;;;;;;5050564;28;20467;-70
2022/07/02 07:16:26;;;;;;;4.32;0.70;;;17.10;99.90;;;;;;5048845;28;20032;-71
2022/07/02 07:19:03;;;;;;;2.55;0.60;;;17.00;99.90;;;;;;5039310;28;20025;-71
2022/07/02 07:21:28;;;;;;;3.38;0.75;;;16.90;99.90;;;;;;5044497;28;20041;-70
2022/07/02 07:23:54;;;;;;;4.07;0.50;;;17.00;99.90;;;;;;5049167;28;20571;-71
2022/07/02 07:26:19;;;;;;;3.67;0.90;;;17.00;99.90;;;;;;5044464;28;20183;-70
2022/07/02 07:28:45;;;;;;;3.70;0.60;;;17.00;99.90;;;;;;5041995;28;20030;-71
2022/07/02 07:31:11;;;;;;;2.55;0.63;;;17.00;99.90;;;;;;5036898;28;20510;-70
2022/07/02 07:33:37;;;;;;;3.50;0.65;;;17.20;99.90;;;;;;5030055;28;20029;-72
2022/07/02 07:36:04;;;;;;;3.00;0.70;;;17.40;99.90;;;;;;5035339;28;20032;-68
2022/07/02 07:38:29;;;;;;;2.40;0.70;;;17.50;99.90;;;;;;5046080;28;20059;-71
2022/07/02 07:40:55;;;;;;;2.17;0.63;;;17.70;98.80;;;;;;5049032;28;20442;-70
2022/07/02 07:43:21;;;;;;;2.70;0.65;;;17.80;96.80;;;;;;5050043;28;20044;-70
2022/07/02 07:45:46;;;;;;;2.42;0.60;;;17.90;97.30;;;;;;5039601;28;20103;-71
2022/07/02 07:48:13;;;;;;;3.92;0.50;;;17.90;95.40;;;;;;5035906;28;20099;-70
2022/07/02 07:50:39;;;;;;;3.50;0.60;;;17.90;96.50;;;;;;5039626;28;20150;-70
2022/07/02 07:53:04;;;;;;;2.92;0.60;;;17.90;94.70;;;;;;5045784;28;20694;-69
2022/07/02 07:55:30;;;;;;;2.75;0.52;;;18.00;97.30;;;;;;5047718;28;20029;-69
2022/07/02 07:57:56;;;;;;;2.47;0.80;;;18.10;97.10;;;;;;5046695;28;20044;-70
2022/07/02 08:00:22;;;;;;;3.42;0.40;;;18.20;97.40;;;;;;5046137;28;20106;-71
2022/07/02 08:02:48;;;;;;;3.50;0.70;;;18.40;97.30;;;;;;5035058;28;20033;-71
2022/07/02 08:05:13;;;;;;;3.40;0.60;;;18.50;98.40;;;;;;5037077;28;20522;-72
2022/07/02 08:07:40;;;;;;;3.97;0.52;;;18.50;97.00;;;;;;5036611;28;20029;-71
2022/07/02 08:10:07;;;;;;;2.85;0.70;;;18.50;96.00;;;;;;5031041;28;20025;-71
2022/07/02 08:12:33;;;;;;;3.40;0.55;;;18.50;97.30;;;;;;5037712;28;20036;-70
2022/07/02 08:15:01;;;;;;;5.32;0.90;;;18.40;97.40;;;;;;5038495;28;20033;-71
2022/07/02 08:17:29;;;;;;;3.30;0.60;;;18.40;99.30;;;;;;5036237;28;20041;-69
2022/07/02 08:19:55;;;;;;;3.00;0.63;;;18.40;98.40;;;;;;5043492;28;20416;-71
2022/07/02 08:22:21;;;;;;;3.22;0.75;;;18.50;99.00;;;;;;5037096;28;20084;-71
2022/07/02 08:24:47;;;;;;;4.45;0.93;;;18.60;98.80;;;;;;5042814;28;20372;-71
2022/07/02 08:27:13;;;;;;;2.50;0.75;;;18.60;97.50;;;;;;5047873;28;20025;-71
2022/07/02 08:29:39;;;;;;;3.50;0.63;;;18.50;98.70;;;;;;5044376;28;20056;-71
2022/07/02 08:32:05;;;;;;;3.47;0.93;;;18.40;99.00;;;;;;5032527;28;20073;-71
2022/07/02 08:34:32;;;;;;;3.00;0.80;;;18.30;99.30;;;;;;5044607;28;20102;-71
2022/07/02 08:36:58;;;;;;;2.75;0.80;;;18.20;99.50;;;;;;5044628;28;20053;-72
2022/07/02 08:39:24;;;;;;;2.85;0.60;;;18.20;99.80;;;;;;5037277;28;20037;-71
2022/07/02 08:41:52;;;;;;;4.43;0.70;;;18.20;98.40;;;;;;5053173;28;20204;-70
2022/07/02 08:44:21;;;;;;;3.78;0.70;;;18.20;98.20;;;;;;5036892;28;20030;-70
2022/07/02 08:46:47;;;;;;;3.03;0.70;;;18.30;98.50;;;;;;5033419;28;20103;-71
2022/07/02 08:49:17;;;;;;;2.72;0.60;;;18.40;98.20;;;;;;5039559;28;20082;-70
2022/07/02 08:52:07;;;;;;;4.80;0.80;;;18.40;98.80;;;;;;5028371;28;20033;-70
2022/07/02 08:54:35;;;;;;;3.00;0.70;;;18.50;97.90;;;;;;5028349;28;20511;-70
2022/07/02 08:57:03;;;;;;;2.28;0.55;;;18.40;97.70;;;;;;5034903;28;20041;-71
2022/07/02 08:59:32;;;;;;;4.13;0.75;;;18.40;99.10;;;;;;5034014;28;20032;-72
2022/07/02 09:02:01;;;;;;;;;;;18.40;98.70;;;;;;5033471;28;20037;-72
2022/07/02 09:04:29;;;;;;;3.20;0.63;;;18.40;98.20;;;;;;5040293;28;19916;-72
2022/07/02 09:06:58;;;;;;;1.95;0.70;;;18.40;98.40;;;;;;5041008;28;20446;-72
2022/07/02 09:09:28;;;;;;;2.88;0.80;;;18.50;98.30;;;;;;5041874;28;20063;-70
2022/07/02 09:11:55;;;;;;;2.97;0.60;;;18.50;97.40;;;;;;5040284;28;20037;-72
2022/07/02 09:14:21;;;;;;;3.90;0.60;;;18.50;98.30;;;;;;5033356;28;20120;-70
2022/07/02 09:16:50;;;;;;;4.15;0.63;;;18.60;99.70;;;;;;5028639;28;20099;-71
2022/07/02 09:19:17;;;;;;;5.27;0.60;;;18.80;99.10;;;;;;5030702;28;20798;-72
2022/07/02 09:21:52;;;;;;;3.05;0.60;;;18.70;99.40;;;;;;5035688;28;20271;-71
2022/07/02 09:24:36;;;;;;;3.78;0.77;;;18.80;99.00;;;;;;5031502;28;20032;-72
2022/07/02 09:27:04;;;;;;;3.63;0.77;;;18.80;97.70;;;;;;5038663;28;20108;-71
2022/07/02 09:29:52;;;;;;;4.97;0.68;;;18.90;98.90;;;;;;5038485;28;20475;-72
2022/07/02 09:32:19;;;;;;;3.35;0.70;;;19.00;99.40;;;;;;5036925;28;20021;-72
2022/07/02 09:34:50;;;;;;;4.15;0.57;;;19.10;96.90;;;;;;5040177;28;20033;-72
2022/07/02 09:37:20;;;;;;;1.80;0.60;;;19.10;98.00;;;;;;5048463;28;20118;-72
2022/07/02 09:39:49;;;;;;;2.70;0.75;;;19.10;96.90;;;;;;5026819;28;20045;-77
2022/07/02 09:42:30;;;;;;;5.90;0.73;;;19.10;96.80;;;;;;5041008;28;20041;-73
2022/07/02 09:44:57;;;;;;;4.63;0.70;;;19.10;96.20;;;;;;5039969;28;20029;-75
2022/07/02 09:47:36;;;;;;;2.15;0.50;;;19.20;99.40;;;;;;5039327;28;20037;-73
2022/07/02 09:50:08;;;;;;;5.57;1.05;;;19.40;97.00;;;;;;5038902;28;20033;-73
2022/07/02 09:52:34;;;;;;;3.92;0.52;;;19.40;94.90;;;;;;5038836;28;20032;-70
2022/07/02 09:55:01;;;;;;;2.20;0.55;;;19.40;93.00;;;;;;5039147;28;20075;-70
2022/07/02 09:57:28;;;;;;;2.92;0.60;;;19.30;93.30;;;;;;5040207;28;20115;-72
2022/07/02 09:59:54;;;;;;;1.90;0.52;;;19.30;97.40;;;;;;5036091;28;20033;-72
2022/07/02 10:02:24;;;;;;;1.90;0.47;;;19.50;96.70;;;;;;5034738;28;20037;-71
2022/07/02 10:04:55;;;;;;;2.38;0.52;;;19.70;95.90;;;;;;5031105;28;20057;-72
2022/07/02 10:07:23;;;;;;;2.13;0.40;;;19.80;93.10;;;;;;5029797;28;20116;-71
2022/07/02 10:09:51;;;;;;;4.90;0.82;;;19.80;91.80;;;;;;5029416;28;20107;-70
2022/07/02 10:12:19;;;;;;;3.40;0.68;;;19.80;93.10;;;;;;5038712;28;20033;-70
2022/07/02 10:14:46;;;;;;;3.70;0.60;;;19.70;92.10;;;;;;5039305;28;20063;-71
2022/07/02 10:17:13;;;;;;;3.50;0.80;;;19.60;90.40;;;;;;5044822;28;20064;-71
2022/07/02 10:19:41;;;;;;;2.80;0.77;;;19.50;92.90;;;;;;5031532;28;20029;-69
2022/07/02 10:22:07;;;;;;;2.97;0.60;;;19.50;91.60;;;;;;5034930;28;20037;-71
2022/07/02 10:24:34;;;;;;;2.38;0.77;;;19.60;92.00;;;;;;5051616;28;20059;-71
2022/07/02 10:27:01;;;;;;;2.10;0.50;;;19.60;90.90;;;;;;5048731;28;20116;-72
2022/07/02 10:29:28;;;;;;;3.40;0.70;;;19.60;91.70;;;;;;5044505;28;20395;-71
2022/07/02 10:32:31;;;;;;;3.00;0.55;;;19.80;84.10;;;;;;5053111;28;20055;-72
2022/07/02 10:35:15;;;;;;;2.22;0.40;;;19.90;89.20;;;;;;5043253;28;20024;-69
2022/07/02 10:37:42;;;;;;;2.08;0.40;;;20.00;85.80;;;;;;5052584;28;20041;-71
2022/07/02 10:40:09;;;;;;;3.03;0.65;;;20.00;85.90;;;;;;5052931;28;20040;-72
2022/07/02 10:42:50;;;;;;;1.98;0.43;;;20.10;86.80;;;;;;5055361;28;20044;-69
2022/07/02 10:45:17;;;;;;;3.70;0.70;;;20.00;87.40;;;;;;5056206;28;20119;-70
2022/07/02 10:47:53;;;;;;;3.90;0.70;;;19.90;87.40;;;;;;5048323;28;20029;-71
2022/07/02 10:50:18;;;;;;;4.40;0.80;;;19.90;90.30;;;;;;5050534;28;20024;-72
2022/07/02 10:52:49;;;;;;;5.50;0.90;;;20.00;90.80;;;;;;5042374;28;20441;-72
2022/07/02 10:55:30;;;;;;;2.30;0.70;;;20.10;90.00;;;;;;5040606;28;20032;-72
2022/07/02 10:57:57;;;;;;;2.38;0.60;;;20.30;90.50;;;;;;5050143;28;20041;-72
2022/07/02 11:00:31;;;;;;;4.00;0.80;;;20.60;91.80;;;;;;5044284;28;20029;-70
2022/07/02 11:02:58;;;;;;;3.22;0.70;;;20.90;81.00;;;;;;5070574;28;20507;-70
2022/07/02 11:05:24;;;;;;;3.47;0.95;;;20.80;80.90;;;;;;5049034;28;20037;-72
2022/07/02 11:07:50;;;;;;;2.50;0.52;;;20.60;83.70;;;;;;5046090;28;20720;-72
2022/07/02 11:10:24;;;;;;;2.42;0.60;;;20.60;84.40;;;;;;5042752;28;20029;-72
2022/07/02 11:12:59;;;;;;;4.10;0.77;;;20.60;88.00;;;;;;5039655;28;20048;-71
2022/07/02 11:15:34;;;;;;;3.35;0.63;;;20.80;87.40;;;;;;5039109;28;20480;-72
2022/07/02 11:18:06;;;;;;;3.03;0.60;;;20.90;91.40;;;;;;5039036;28;20391;-71
2022/07/02 11:20:35;;;;;;;2.83;0.68;;;22.40;83.90;;;;;;5049765;28;20471;-73
2022/07/02 11:23:01;;;;;;;4.57;0.80;;;23.30;70.30;;;;;;5043333;28;20544;-73
2022/07/02 11:25:31;;;;;;;2.25;0.73;;;24.10;65.20;;;;;;5038802;28;20141;-73
2022/07/02 11:27:58;;;;;;;4.18;0.60;;;23.80;65.40;;;;;;5047097;28;20098;-74
2022/07/02 11:30:28;;;;;;;2.83;0.63;;;24.10;61.10;;;;;;5039640;28;20659;-72
2022/07/02 11:32:55;;;;;;;2.28;0.52;;;24.40;57.50;;;;;;5032293;28;20444;-74
2022/07/02 11:35:23;;;;;;;3.42;0.50;;;23.60;59.70;;;;;;5043601;28;20033;-72
2022/07/02 11:37:49;;;;;;;2.45;0.50;;;23.30;61.50;;;;;;5035487;28;20061;-74
2022/07/02 11:40:22;;;;;;;2.00;0.52;;;22.80;64.30;;;;;;5036415;28;20033;-73
2022/07/02 11:42:48;;;;;;;2.75;0.50;;;22.60;65.90;;;;;;5033326;28;20110;-71
2022/07/02 11:45:14;;;;;;;3.78;0.57;;;22.50;67.40;;;;;;5038018;28;20025;-73
2022/07/02 11:47:47;;;;;;;1.60;0.43;;;22.10;59.30;;;;;;5036591;28;20044;-71
2022/07/02 11:50:13;;;;;;;3.17;0.63;;;21.90;66.00;;;;;;5040079;28;20033;-72
2022/07/02 11:52:42;;;;;;;3.20;0.85;;;21.60;59.80;;;;;;5040691;28;20254;-71
2022/07/02 11:55:15;;;;;;;2.80;0.50;;;21.40;61.00;;;;;;5036332;28;20030;-74
2022/07/02 11:57:42;;;;;;;1.70;0.70;;;21.20;67.20;;;;;;5034347;28;20045;-72
2022/07/02 12:00:08;;;;;;;2.15;0.50;;;21.20;62.80;;;;;;5041644;28;20041;-71
2022/07/02 12:02:38;;;;;;;3.65;0.60;;;21.10;71.30;;;;;;5049540;28;20078;-71
2022/07/02 12:05:18;;;;;;;3.25;0.70;;;21.00;72.00;;;;;;5035537;28;20034;-72
2022/07/02 12:07:45;;;;;;;1.98;0.40;;;21.00;75.10;;;;;;5040111;28;20724;-74
2022/07/02 12:10:12;;;;;;;2.97;0.60;;;20.80;68.70;;;;;;5033197;28;20021;-72
2022/07/02 12:12:38;;;;;;;2.80;0.63;;;20.70;76.60;;;;;;5035322;28;20498;-73
2022/07/02 12:15:04;;;;;;;3.03;0.70;;;20.70;76.20;;;;;;5045884;28;20038;-72
2022/07/02 12:17:30;;;;;;;5.50;0.85;;;20.70;80.80;;;;;;5031251;28;20142;-71
2022/07/02 12:19:56;;;;;;;4.25;0.85;;;20.90;76.10;;;;;;5034143;28;20618;-70
2022/07/02 12:22:29;;;;;;;3.08;0.65;;;20.80;84.00;;;;;;5035960;28;20045;-70
2022/07/02 12:24:55;;;;;;;3.90;0.98;;;20.70;81.20;;;;;;5048578;28;20021;-72
2022/07/02 12:27:24;;;;;;;1.83;0.40;;;20.60;85.00;;;;;;5037379;28;20037;-73
2022/07/02 12:29:53;;;;;;;2.85;0.63;;;20.60;90.20;;;;;;5032911;28;20120;-72
2022/07/02 12:32:21;;;;;;;2.13;0.70;;;20.70;90.60;;;;;;5032636;28;20039;-71
2022/07/02 12:34:51;;;;;;;3.10;0.73;;;20.70;81.50;;;;;;5035599;28;20320;-72
2022/07/02 12:37:27;;;;;;;5.07;0.70;;;20.60;90.10;;;;;;5036719;28;20045;-71
2022/07/02 12:40:10;;;;;;;5.20;0.80;;;20.50;87.20;;;;;;5046051;28;20033;-73
2022/07/02 12:42:45;;;;;;;3.80;0.70;;;20.50;86.20;;;;;;5042769;28;20136;-73
2022/07/02 12:45:27;;;;;;;5.63;1.30;;;20.50;91.90;;;;;;5038270;28;20029;-74
2022/07/02 12:47:58;;;;;;;3.05;0.50;;;20.40;90.30;;;;;;5039209;28;20064;-73
2022/07/02 12:50:26;;;;;;;3.65;0.77;;;20.40;91.60;;;;;;5037206;28;20033;-72
2022/07/02 12:52:54;;;;;;;6.43;0.85;;;20.30;93.10;;;;;;5034210;28;20090;-74